Time;durP1;ratioP1;P1;durP2;ratioP2;P2;SDS_P1;SDS_P2;PMS_P1;PMS_P2;Temp;Humidity;BMP_temperature;BMP_pressure;BME280_temperature;BME280_humidity;BME280_pressure;Samples;Min_cycle;Max_cycle;Signal;HPM_P1;HPM_P2
2022/06/11 00:01:48;;;;;;;3.23;2.80;;;14.50;99.90;;;;;;5031063;28;20175;-77
2022/06/11 00:04:29;;;;;;;2.73;2.47;;;14.40;99.90;;;;;;5030951;28;20192;-76
2022/06/11 00:06:59;;;;;;;3.30;2.20;;;14.40;99.90;;;;;;5032061;28;20518;-77
2022/06/11 00:09:26;;;;;;;2.37;2.17;;;14.40;99.90;;;;;;5032144;28;20297;-77
2022/06/11 00:11:52;;;;;;;2.57;2.30;;;14.40;99.90;;;;;;5014202;28;20297;-77
2022/06/11 00:14:20;;;;;;;2.70;2.50;;;14.50;99.90;;;;;;5014459;28;20269;-77
2022/06/11 00:16:46;;;;;;;3.60;2.50;;;14.50;99.90;;;;;;5030634;28;20179;-77
2022/06/11 00:19:15;;;;;;;3.47;2.50;;;14.50;99.90;;;;;;5017232;28;20217;-77
2022/06/11 00:21:42;;;;;;;2.77;2.57;;;14.50;99.90;;;;;;5035918;28;20186;-76
2022/06/11 00:24:09;;;;;;;2.90;2.40;;;14.40;99.90;;;;;;5034812;28;20210;-77
2022/06/11 00:26:35;;;;;;;4.13;2.23;;;14.50;99.90;;;;;;5035973;28;20175;-77
2022/06/11 00:29:01;;;;;;;3.17;2.50;;;14.60;99.90;;;;;;5034881;28;20174;-77
2022/06/11 00:31:27;;;;;;;2.93;2.50;;;14.70;99.90;;;;;;5034530;28;20205;-77
2022/06/11 00:33:53;;;;;;;2.90;2.33;;;14.70;99.90;;;;;;5034502;28;20180;-77
2022/06/11 00:36:18;;;;;;;4.80;2.60;;;14.70;99.90;;;;;;5017931;28;20186;-77
2022/06/11 00:38:47;;;;;;;4.37;2.60;;;14.70;99.90;;;;;;5017916;28;20190;-77
2022/06/11 00:41:14;;;;;;;2.73;2.47;;;14.70;99.90;;;;;;5034468;28;20228;-77
2022/06/11 00:43:40;;;;;;;2.77;2.50;;;14.70;99.90;;;;;;5017748;28;20314;-77
2022/06/11 00:46:33;;;;;;;2.50;2.30;;;14.80;99.90;;;;;;5035501;28;20178;-77
2022/06/11 00:48:59;;;;;;;2.77;2.57;;;14.60;99.90;;;;;;5035302;28;20179;-77
2022/06/11 00:51:26;;;;;;;3.03;2.57;;;14.50;99.90;;;;;;5034062;28;20202;-77
2022/06/11 00:53:59;;;;;;;3.53;2.37;;;14.50;99.90;;;;;;5017650;28;20198;-77
2022/06/11 00:56:39;;;;;;;2.70;2.50;;;14.50;99.90;;;;;;5034237;28;20257;-77
2022/06/11 00:59:10;;;;;;;2.77;2.57;;;14.50;99.90;;;;;;5034116;28;20704;-77
2022/06/11 01:01:36;;;;;;;2.70;2.50;;;14.60;99.90;;;;;;5017486;28;20182;-77
2022/06/11 01:04:23;;;;;;;3.27;2.77;;;14.50;99.90;;;;;;5017561;28;20615;-77
2022/06/11 01:06:56;;;;;;;2.73;2.40;;;14.50;99.90;;;;;;5033747;28;20182;-77
2022/06/11 01:09:43;;;;;;;3.50;2.47;;;14.50;99.90;;;;;;5033823;28;20202;-77
2022/06/11 01:12:33;;;;;;;2.83;2.60;;;14.40;99.90;;;;;;5034769;28;20198;-77
2022/06/11 01:15:12;;;;;;;2.50;2.30;;;14.30;99.90;;;;;;5033653;28;20191;-77
2022/06/11 01:18:03;;;;;;;3.83;2.67;;;14.30;99.90;;;;;;5033826;28;20590;-77
2022/06/11 01:20:39;;;;;;;2.73;2.50;;;14.10;99.90;;;;;;5084525;22;20225;-76
2022/06/11 01:23:43;;;;;;;2.60;2.40;;;14.10;99.90;;;;;;5053427;28;20212;-76
2022/06/11 01:26:23;;;;;;;3.00;2.60;;;14.10;99.90;;;;;;5054734;28;20166;-76
2022/06/11 01:29:29;;;;;;;3.43;2.63;;;14.10;99.90;;;;;;5054202;28;20647;-76
2022/06/11 01:32:19;;;;;;;2.63;2.43;;;14.20;99.90;;;;;;4995786;28;20206;-76
2022/06/11 01:35:06;;;;;;;2.70;2.50;;;14.30;99.90;;;;;;5033073;28;20182;-76
2022/06/11 01:37:45;;;;;;;3.47;2.70;;;14.30;99.90;;;;;;5034786;28;20170;-76
2022/06/11 01:40:14;;;;;;;3.63;2.77;;;14.30;99.90;;;;;;5033573;28;20248;-76
2022/06/11 01:42:51;;;;;;;2.90;2.60;;;14.30;99.90;;;;;;5033138;28;20293;-76
2022/06/11 01:45:24;;;;;;;3.17;2.40;;;14.40;99.90;;;;;;5016748;28;20178;-76
2022/06/11 01:47:52;;;;;;;3.33;2.83;;;14.40;99.90;;;;;;5016826;28;20265;-76
2022/06/11 01:50:22;;;;;;;2.87;2.67;;;14.20;99.90;;;;;;5033406;28;20249;-76
2022/06/11 01:53:07;;;;;;;3.27;2.50;;;14.20;99.90;;;;;;5032873;28;20182;-76
2022/06/11 01:55:58;;;;;;;2.60;2.40;;;14.20;99.90;;;;;;5032954;28;20175;-76
2022/06/11 01:58:42;;;;;;;4.70;3.10;;;14.20;99.90;;;;;;5014110;28;20187;-76
2022/06/11 02:01:26;;;;;;;2.80;2.60;;;14.30;99.90;;;;;;5032792;28;20194;-76
2022/06/11 02:04:06;;;;;;;2.57;2.37;;;14.30;99.90;;;;;;5033927;28;20245;-76
2022/06/11 02:07:13;;;;;;;4.50;2.70;;;14.20;99.90;;;;;;5033096;28;20628;-76
2022/06/11 02:10:01;;;;;;;3.13;2.80;;;14.20;99.90;;;;;;5032673;28;20195;-76
2022/06/11 02:12:35;;;;;;;3.43;2.63;;;14.30;99.90;;;;;;5032683;28;20178;-76
2022/06/11 02:15:23;;;;;;;2.60;2.40;;;14.30;99.90;;;;;;5032842;28;20629;-76
2022/06/11 02:17:56;;;;;;;2.67;2.47;;;14.40;99.90;;;;;;5032672;28;20251;-76
2022/06/11 02:20:28;;;;;;;3.00;2.70;;;14.40;99.90;;;;;;5032348;28;20225;-76
2022/06/11 02:23:01;;;;;;;3.90;3.00;;;14.40;99.90;;;;;;5016132;28;20210;-76
2022/06/11 02:25:32;;;;;;;3.90;2.70;;;14.40;99.90;;;;;;5032606;28;20174;-76
2022/06/11 02:28:03;;;;;;;2.93;2.63;;;14.40;99.90;;;;;;5016355;28;20325;-76
2022/06/11 02:30:31;;;;;;;3.73;2.70;;;14.40;99.90;;;;;;5032285;28;20202;-76
2022/06/11 02:32:58;;;;;;;3.03;2.73;;;14.30;99.90;;;;;;5015758;28;20259;-76
2022/06/11 02:35:35;;;;;;;3.03;2.50;;;14.30;99.90;;;;;;5032209;28;20271;-75
2022/06/11 02:38:01;;;;;;;3.27;2.57;;;14.40;99.90;;;;;;5032579;28;20205;-76
2022/06/11 02:40:31;;;;;;;6.90;2.63;;;14.40;99.90;;;;;;5015545;28;20285;-76
2022/06/11 02:42:57;;;;;;;4.43;2.90;;;14.40;99.90;;;;;;5015458;28;20206;-76
2022/06/11 02:45:23;;;;;;;3.20;2.90;;;14.50;99.90;;;;;;5032067;28;20232;-76
2022/06/11 02:47:51;;;;;;;3.83;2.70;;;14.50;99.90;;;;;;5015713;28;20198;-76
2022/06/11 02:50:29;;;;;;;3.30;2.90;;;14.50;99.90;;;;;;5031876;28;20198;-76
2022/06/11 02:52:56;;;;;;;2.70;2.50;;;14.50;99.90;;;;;;4999361;28;20182;-76
2022/06/11 02:55:23;;;;;;;3.37;2.50;;;14.40;99.90;;;;;;5031966;28;20171;-76
2022/06/11 02:57:49;;;;;;;3.30;2.83;;;14.40;99.90;;;;;;5015626;28;20240;-76
2022/06/11 03:00:19;;;;;;;3.40;2.30;;;14.40;99.90;;;;;;5031591;28;20205;-76
2022/06/11 03:02:47;;;;;;;5.17;2.93;;;14.40;99.90;;;;;;5031588;28;20213;-76
2022/06/11 03:05:14;;;;;;;3.07;2.77;;;14.30;99.90;;;;;;5015579;28;20255;-76
2022/06/11 03:07:39;;;;;;;2.90;2.60;;;14.30;99.90;;;;;;5015436;28;20299;-75
2022/06/11 03:10:05;;;;;;;4.07;2.97;;;14.30;99.90;;;;;;5032722;28;20277;-76
2022/06/11 03:12:31;;;;;;;3.13;2.83;;;14.30;99.90;;;;;;5014970;28;20174;-76
2022/06/11 03:14:56;;;;;;;2.97;2.77;;;14.30;99.90;;;;;;4998866;28;20707;-76
2022/06/11 03:17:22;;;;;;;3.50;2.77;;;14.30;99.90;;;;;;5015128;28;20186;-76
2022/06/11 03:19:49;;;;;;;4.00;3.13;;;14.30;99.90;;;;;;5015022;28;20210;-76
2022/06/11 03:22:17;;;;;;;3.83;2.80;;;14.40;99.90;;;;;;5031232;28;20209;-76
2022/06/11 03:24:43;;;;;;;4.13;2.63;;;14.30;99.90;;;;;;5031497;28;20200;-76
2022/06/11 03:27:10;;;;;;;3.90;2.63;;;14.30;99.90;;;;;;5015088;28;20178;-75
2022/06/11 03:29:36;;;;;;;3.10;2.80;;;14.40;99.90;;;;;;5031420;28;20194;-76
2022/06/11 03:32:03;;;;;;;3.63;2.70;;;14.40;99.90;;;;;;5031175;28;20550;-76
2022/06/11 03:34:29;;;;;;;3.53;3.00;;;14.40;99.90;;;;;;5031426;28;20176;-76
2022/06/11 03:36:57;;;;;;;3.20;2.90;;;14.50;99.90;;;;;;5031218;28;20269;-76
2022/06/11 03:39:23;;;;;;;3.70;3.00;;;14.50;99.90;;;;;;5031001;28;20243;-76
2022/06/11 03:41:49;;;;;;;4.80;3.10;;;14.50;99.90;;;;;;5030820;28;20206;-76
2022/06/11 03:44:16;;;;;;;3.77;3.33;;;14.50;99.90;;;;;;5032284;28;20174;-76
2022/06/11 03:46:42;;;;;;;5.27;3.30;;;14.50;99.90;;;;;;5032398;28;20696;-76
2022/06/11 03:49:08;;;;;;;4.40;2.80;;;14.40;99.90;;;;;;5014616;28;20185;-76
2022/06/11 03:51:34;;;;;;;3.93;2.93;;;14.50;99.90;;;;;;5031127;28;20606;-76
2022/06/11 03:54:00;;;;;;;3.37;3.07;;;14.50;99.90;;;;;;5013705;28;20209;-76
2022/06/11 03:56:26;;;;;;;3.93;3.13;;;14.60;99.90;;;;;;5030905;28;20214;-76
2022/06/11 03:58:51;;;;;;;3.70;3.03;;;14.50;99.90;;;;;;5014704;28;20273;-76
2022/06/11 04:01:23;;;;;;;3.30;3.00;;;14.60;99.90;;;;;;5032293;28;20256;-76
2022/06/11 04:03:51;;;;;;;4.03;3.10;;;14.60;99.90;;;;;;5032088;28;20178;-76
2022/06/11 04:06:21;;;;;;;3.40;3.10;;;14.70;99.90;;;;;;5031058;28;20232;-76
2022/06/11 04:08:46;;;;;;;5.00;3.27;;;14.60;99.90;;;;;;4998315;28;20170;-76
2022/06/11 04:11:13;;;;;;;4.33;3.37;;;14.60;99.90;;;;;;5030819;28;20626;-76
2022/06/11 04:13:42;;;;;;;4.73;3.50;;;14.50;99.90;;;;;;5030665;28;20224;-76
2022/06/11 04:16:20;;;;;;;5.63;5.13;;;14.50;99.90;;;;;;5014464;28;20179;-76
2022/06/11 04:18:48;;;;;;;6.50;5.27;;;14.50;99.90;;;;;;5030880;28;20217;-76
2022/06/11 04:21:15;;;;;;;7.37;6.67;;;14.60;99.90;;;;;;4998703;28;20240;-76
2022/06/11 04:23:43;;;;;;;8.83;7.93;;;14.60;99.90;;;;;;5030484;28;20185;-76
2022/06/11 04:26:13;;;;;;;9.77;8.87;;;14.60;99.90;;;;;;5030684;28;20224;-76
2022/06/11 04:28:39;;;;;;;8.00;7.20;;;14.60;99.90;;;;;;5030807;28;20174;-76
2022/06/11 04:31:07;;;;;;;5.63;5.10;;;14.60;99.90;;;;;;5014265;28;20217;-76
2022/06/11 04:33:33;;;;;;;4.87;4.43;;;14.70;99.90;;;;;;5030540;28;20566;-76
2022/06/11 04:35:59;;;;;;;4.57;3.90;;;14.70;99.90;;;;;;5030620;28;20179;-76
2022/06/11 04:38:25;;;;;;;4.93;4.43;;;14.70;99.90;;;;;;4997864;28;20178;-76
2022/06/11 04:40:52;;;;;;;3.90;3.50;;;14.80;99.90;;;;;;5030516;28;20195;-75
2022/06/11 04:43:17;;;;;;;5.53;3.80;;;14.80;99.90;;;;;;5030471;28;20711;-76
2022/06/11 04:45:43;;;;;;;4.30;3.40;;;14.80;99.90;;;;;;5030543;28;20190;-75
2022/06/11 04:48:09;;;;;;;3.77;3.30;;;14.90;99.90;;;;;;5030529;28;20175;-75
2022/06/11 04:50:35;;;;;;;4.13;3.50;;;15.00;99.90;;;;;;5013922;28;20202;-75
2022/06/11 04:53:03;;;;;;;5.53;3.50;;;15.00;99.90;;;;;;4997588;28;20195;-76
2022/06/11 04:55:29;;;;;;;4.90;3.50;;;15.10;99.90;;;;;;5030455;28;20190;-75
2022/06/11 04:57:55;;;;;;;4.10;3.70;;;15.10;99.90;;;;;;5030463;28;20232;-76
2022/06/11 05:00:25;;;;;;;4.07;3.67;;;15.10;99.90;;;;;;5030428;28;20668;-76
2022/06/11 05:02:51;;;;;;;3.90;3.50;;;15.20;99.90;;;;;;5013734;28;20556;-76
2022/06/11 05:05:17;;;;;;;3.90;3.60;;;15.20;99.90;;;;;;5016859;28;20233;-75
2022/06/11 05:07:43;;;;;;;5.00;3.80;;;15.30;99.90;;;;;;5034305;28;20217;-75
2022/06/11 05:10:11;;;;;;;3.70;3.37;;;15.20;99.90;;;;;;5033902;28;20736;-76
2022/06/11 05:12:37;;;;;;;4.60;3.30;;;15.30;99.90;;;;;;5033742;28;20178;-75
2022/06/11 05:15:04;;;;;;;3.87;3.57;;;15.30;99.90;;;;;;5017312;28;20328;-79
2022/06/11 05:17:29;;;;;;;4.80;3.00;;;15.40;99.90;;;;;;5017303;28;20186;-75
2022/06/11 05:19:55;;;;;;;3.53;3.23;;;15.50;99.90;;;;;;5033468;28;20210;-75
2022/06/11 05:22:21;;;;;;;4.07;3.70;;;15.50;99.90;;;;;;5016781;28;20210;-75
2022/06/11 05:24:46;;;;;;;4.13;3.20;;;15.60;99.90;;;;;;5017159;28;20243;-75
2022/06/11 05:27:15;;;;;;;3.90;3.20;;;15.70;99.90;;;;;;5000869;28;20178;-75
2022/06/11 05:29:48;;;;;;;4.50;3.20;;;15.70;99.90;;;;;;5033524;28;20220;-74
2022/06/11 05:32:16;;;;;;;4.10;3.43;;;15.80;99.90;;;;;;5033276;28;20228;-76
2022/06/11 05:34:42;;;;;;;3.70;3.37;;;15.80;99.90;;;;;;5017440;28;20178;-75
2022/06/11 05:37:08;;;;;;;3.80;3.50;;;15.90;99.90;;;;;;5033439;28;20225;-76
2022/06/11 05:39:33;;;;;;;3.50;3.20;;;16.00;99.90;;;;;;5016918;28;20210;-76
2022/06/11 05:41:59;;;;;;;3.93;3.30;;;16.00;99.90;;;;;;5032966;28;20547;-76
2022/06/11 05:44:25;;;;;;;4.00;3.47;;;16.10;99.90;;;;;;5000384;28;20644;-76
2022/06/11 05:46:52;;;;;;;4.20;3.53;;;16.20;99.90;;;;;;5017095;28;20182;-78
2022/06/11 05:49:21;;;;;;;3.93;3.53;;;16.20;99.90;;;;;;5033539;28;20269;-79
2022/06/11 05:51:51;;;;;;;4.30;3.90;;;16.20;99.90;;;;;;5017385;28;20189;-76
2022/06/11 05:54:21;;;;;;;4.17;3.67;;;16.20;99.90;;;;;;5000836;28;20189;-75
2022/06/11 05:56:48;;;;;;;4.10;3.70;;;16.20;99.90;;;;;;5034194;28;20174;-75
2022/06/11 05:59:23;;;;;;;5.17;3.80;;;16.20;99.90;;;;;;5034042;28;20735;-76
2022/06/11 06:01:50;;;;;;;5.83;3.90;;;16.30;99.90;;;;;;5034195;28;20566;-76
2022/06/11 06:04:16;;;;;;;4.07;3.57;;;16.40;99.90;;;;;;5034001;28;20262;-77
2022/06/11 06:06:42;;;;;;;4.77;3.83;;;16.40;99.90;;;;;;5001022;28;20182;-76
2022/06/11 06:09:08;;;;;;;5.73;3.80;;;16.40;99.90;;;;;;5016568;28;20263;-76
2022/06/11 06:11:33;;;;;;;6.83;3.90;;;16.40;99.90;;;;;;5016307;28;20583;-76
2022/06/11 06:13:59;;;;;;;4.40;3.60;;;16.50;99.90;;;;;;5032530;28;20603;-76
2022/06/11 06:16:29;;;;;;;4.10;3.70;;;16.60;99.90;;;;;;5015361;28;20186;-76
2022/06/11 06:18:56;;;;;;;4.43;3.90;;;16.60;99.90;;;;;;5032521;28;20641;-76
2022/06/11 06:21:24;;;;;;;3.80;3.50;;;16.70;99.90;;;;;;5032395;28;20214;-75
2022/06/11 06:23:50;;;;;;;4.33;3.80;;;16.80;99.90;;;;;;5015836;28;20186;-75
2022/06/11 06:26:16;;;;;;;3.87;3.40;;;16.90;99.90;;;;;;5032373;28;20174;-75
2022/06/11 06:28:42;;;;;;;4.67;3.80;;;17.00;99.90;;;;;;5032349;28;20190;-76
2022/06/11 06:31:09;;;;;;;4.40;4.00;;;17.10;99.90;;;;;;4999456;28;20199;-76
2022/06/11 06:33:35;;;;;;;4.57;4.17;;;17.10;99.90;;;;;;5032213;28;20182;-76
2022/06/11 06:36:03;;;;;;;5.13;4.20;;;17.20;99.90;;;;;;5015999;28;20321;-75
2022/06/11 06:38:29;;;;;;;4.23;3.83;;;17.20;99.90;;;;;;5031904;28;20320;-75
2022/06/11 06:40:55;;;;;;;5.47;4.20;;;17.20;99.90;;;;;;4999312;28;20691;-75
2022/06/11 06:43:21;;;;;;;4.80;4.30;;;17.20;99.90;;;;;;5015616;28;20214;-75
2022/06/11 06:45:47;;;;;;;6.63;4.63;;;17.20;99.90;;;;;;5032257;28;20174;-75
2022/06/11 06:48:13;;;;;;;4.80;4.40;;;17.20;99.90;;;;;;5015664;28;20236;-75
2022/06/11 06:50:39;;;;;;;5.03;4.40;;;17.20;99.90;;;;;;5015498;28;20202;-76
2022/06/11 06:53:05;;;;;;;5.97;4.57;;;17.30;99.90;;;;;;5031680;28;20189;-75
2022/06/11 06:55:31;;;;;;;7.17;4.50;;;17.40;99.90;;;;;;4999048;28;20185;-75
2022/06/11 06:57:56;;;;;;;5.73;4.60;;;17.50;99.90;;;;;;5015314;28;20276;-75
2022/06/11 07:00:22;;;;;;;4.40;4.00;;;17.50;99.90;;;;;;5031801;28;20209;-75
2022/06/11 07:02:48;;;;;;;4.87;4.37;;;17.60;99.90;;;;;;4998621;28;20214;-75
2022/06/11 07:05:15;;;;;;;5.23;3.47;;;17.70;99.90;;;;;;5015454;28;20441;-75
2022/06/11 07:07:41;;;;;;;4.27;3.90;;;17.80;99.90;;;;;;5015312;28;20182;-75
2022/06/11 07:10:09;;;;;;;4.23;3.87;;;17.90;99.90;;;;;;5031562;28;20201;-76
2022/06/11 07:12:35;;;;;;;3.67;3.37;;;18.00;99.90;;;;;;5015083;28;20563;-76
2022/06/11 07:15:01;;;;;;;4.30;3.40;;;18.00;99.90;;;;;;5031563;28;20663;-75
2022/06/11 07:17:32;;;;;;;4.10;3.47;;;18.00;99.90;;;;;;5015210;28;20272;-75
2022/06/11 07:20:01;;;;;;;4.53;3.53;;;18.00;99.90;;;;;;5037124;22;20219;-76
2022/06/11 07:22:32;;;;;;;3.60;3.30;;;18.00;99.90;;;;;;5011655;28;20246;-76
2022/06/11 07:25:00;;;;;;;3.77;3.27;;;18.00;99.90;;;;;;4996131;28;20179;-76
2022/06/11 07:27:31;;;;;;;4.00;3.60;;;18.10;99.90;;;;;;4994589;28;20252;-76
2022/06/11 07:30:04;;;;;;;4.37;3.50;;;18.30;99.90;;;;;;5011613;28;20191;-76
2022/06/11 07:32:35;;;;;;;4.07;3.10;;;18.60;99.90;;;;;;5011634;28;20175;-76
2022/06/11 07:35:03;;;;;;;6.00;3.03;;;18.70;99.90;;;;;;5011549;28;20202;-76
2022/06/11 07:37:28;;;;;;;3.40;3.10;;;18.90;99.90;;;;;;4995442;28;20275;-75
2022/06/11 07:39:54;;;;;;;3.90;2.97;;;19.10;99.90;;;;;;4995178;28;20685;-76
2022/06/11 07:42:20;;;;;;;3.73;3.40;;;19.30;99.90;;;;;;4994930;28;20214;-76
2022/06/11 07:44:45;;;;;;;4.87;3.07;;;19.50;99.90;;;;;;5011455;28;20677;-75
2022/06/11 07:47:11;;;;;;;5.07;2.80;;;19.70;99.90;;;;;;4995213;28;20182;-76
2022/06/11 07:49:37;;;;;;;4.10;3.20;;;19.80;99.90;;;;;;4994812;28;20194;-75
2022/06/11 07:52:03;;;;;;;3.53;2.60;;;20.00;99.90;;;;;;4994969;28;20214;-75
2022/06/11 07:54:29;;;;;;;6.00;3.10;;;20.10;99.90;;;;;;4995294;28;20183;-76
2022/06/11 07:56:55;;;;;;;3.75;2.47;;;20.10;99.90;;;;;;4994909;28;20179;-77
2022/06/11 07:59:20;;;;;;;3.78;2.33;;;20.20;99.90;;;;;;4994977;28;20187;-77
2022/06/11 08:01:46;;;;;;;3.40;2.22;;;20.40;99.90;;;;;;4994469;28;20219;-76
2022/06/11 08:04:12;;;;;;;2.42;2.00;;;20.50;99.90;;;;;;4994743;28;20329;-76
2022/06/11 08:06:38;;;;;;;2.20;2.00;;;20.50;99.90;;;;;;4994914;28;20185;-76
2022/06/11 08:09:03;;;;;;;3.75;2.20;;;20.50;99.90;;;;;;4994711;28;20580;-76
2022/06/11 08:11:29;;;;;;;2.78;2.10;;;20.60;99.90;;;;;;5011043;28;20198;-77
2022/06/11 08:13:55;;;;;;;3.67;2.50;;;20.70;99.90;;;;;;4994660;28;20179;-79
2022/06/11 08:16:21;;;;;;;2.42;2.22;;;20.80;99.90;;;;;;4995164;28;20183;-76
2022/06/11 08:18:46;;;;;;;3.05;2.10;;;20.80;99.90;;;;;;4994773;28;20179;-76
2022/06/11 08:21:12;;;;;;;2.17;2.00;;;21.00;99.90;;;;;;4994613;28;20218;-76
2022/06/11 08:23:39;;;;;;;3.75;2.08;;;21.10;99.90;;;;;;5010997;28;20171;-75
2022/06/11 08:26:06;;;;;;;3.45;2.17;;;21.30;99.90;;;;;;4994816;28;20667;-76
2022/06/11 08:28:31;;;;;;;2.85;1.90;;;21.30;99.90;;;;;;5012254;28;20163;-76
2022/06/11 08:30:57;;;;;;;3.38;2.25;;;21.40;99.90;;;;;;4994432;28;20286;-76
2022/06/11 08:33:22;;;;;;;3.53;2.33;;;21.60;99.90;;;;;;5010697;28;20788;-76
2022/06/11 08:35:48;;;;;;;4.22;2.22;;;21.80;99.90;;;;;;4994723;28;20210;-76
2022/06/11 08:38:14;;;;;;;4.28;1.70;;;21.70;99.90;;;;;;4994519;28;20175;-76
2022/06/11 08:40:47;;;;;;;4.72;1.90;;;21.90;99.90;;;;;;5015675;28;20187;-76
2022/06/11 08:43:25;;;;;;;2.55;2.03;;;22.00;99.90;;;;;;5014500;28;20199;-76
2022/06/11 08:45:56;;;;;;;1.85;1.52;;;22.20;99.90;;;;;;5014452;28;20178;-76
2022/06/11 08:48:30;;;;;;;2.92;1.60;;;22.30;99.90;;;;;;5016072;28;20167;-76
2022/06/11 08:51:33;;;;;;;2.92;1.60;;;22.40;99.90;;;;;;5014373;28;20200;-76
2022/06/11 08:54:03;;;;;;;2.55;1.45;;;22.60;99.90;;;;;;5015630;28;20174;-77
2022/06/11 08:56:39;;;;;;;3.05;1.55;;;22.80;99.90;;;;;;4998375;28;20175;-77
2022/06/11 08:59:33;;;;;;;1.75;1.40;;;22.90;99.90;;;;;;5014537;28;20182;-76
2022/06/11 09:02:26;;;;;;;2.50;1.30;;;22.90;99.90;;;;;;5014033;28;20760;-76
2022/06/11 09:05:12;;;;;;;3.15;1.30;;;23.00;99.90;;;;;;5014155;28;20181;-77
2022/06/11 09:08:07;;;;;;;1.95;1.38;;;22.90;99.90;;;;;;5014343;28;20225;-77
2022/06/11 09:11:15;;;;;;;1.38;1.27;;;23.00;99.90;;;;;;5015738;28;20191;-76
2022/06/11 09:14:17;;;;;;;2.30;1.30;;;23.10;99.90;;;;;;5013471;28;20205;-76
2022/06/11 09:17:01;;;;;;;1.65;1.27;;;23.30;99.90;;;;;;5014126;28;20221;-76
2022/06/11 09:19:26;;;;;;;2.28;1.30;;;23.20;99.90;;;;;;5014012;28;20524;-76
2022/06/11 09:22:17;;;;;;;1.98;1.30;;;23.10;99.90;;;;;;5013535;28;20213;-76
2022/06/11 09:25:11;;;;;;;2.75;1.20;;;23.00;99.90;;;;;;5013934;28;20619;-76
2022/06/11 09:27:51;;;;;;;2.35;1.10;;;23.10;99.90;;;;;;5013866;28;20194;-76
2022/06/11 09:30:22;;;;;;;1.88;1.13;;;23.00;99.90;;;;;;5014949;28;20233;-76
2022/06/11 09:32:58;;;;;;;1.83;1.08;;;22.90;99.90;;;;;;4997627;28;20179;-76
2022/06/11 09:35:31;;;;;;;1.27;1.10;;;22.80;99.90;;;;;;5014926;28;20229;-76
2022/06/11 09:38:18;;;;;;;2.95;1.25;;;22.70;99.90;;;;;;5013621;28;20175;-76
2022/06/11 09:40:52;;;;;;;2.38;1.20;;;22.60;99.90;;;;;;5014771;28;20198;-76
2022/06/11 09:43:26;;;;;;;1.30;1.20;;;22.60;99.90;;;;;;5013251;28;20202;-76
2022/06/11 09:46:17;;;;;;;4.40;1.50;;;22.60;99.90;;;;;;5013357;28;20176;-76
2022/06/11 09:49:11;;;;;;;2.58;1.52;;;22.70;99.90;;;;;;5013470;28;20198;-76
2022/06/11 09:52:05;;;;;;;3.35;1.25;;;22.80;99.90;;;;;;5013442;28;20558;-76
2022/06/11 09:54:44;;;;;;;3.20;1.10;;;23.00;99.90;;;;;;5013460;28;20221;-76
2022/06/11 09:57:27;;;;;;;2.75;1.38;;;23.00;99.90;;;;;;5013559;28;20179;-75
2022/06/11 10:00:02;;;;;;;1.85;1.30;;;23.20;99.90;;;;;;5013273;28;20198;-75
2022/06/11 10:02:37;;;;;;;3.03;1.45;;;23.80;99.90;;;;;;4997623;28;20686;-75
2022/06/11 10:05:27;;;;;;;7.32;3.97;;;24.10;99.90;;;;;;5013138;28;20171;-76
2022/06/11 10:08:00;;;;;;;3.45;1.60;;;23.90;99.90;;;;;;4997028;28;20179;-75
2022/06/11 10:10:31;;;;;;;4.18;1.80;;;23.60;99.90;;;;;;5012999;28;20195;-75
2022/06/11 10:13:07;;;;;;;1.95;1.67;;;23.50;99.90;;;;;;4996583;28;20189;-76
2022/06/11 10:15:39;;;;;;;4.55;2.60;;;23.30;99.90;;;;;;5012860;28;20179;-75
2022/06/11 10:18:11;;;;;;;1.70;1.50;;;23.30;99.90;;;;;;4996615;28;20171;-77
2022/06/11 10:20:45;;;;;;;12.05;5.35;;;23.30;99.90;;;;;;5012791;28;20221;-77
2022/06/11 10:23:36;;;;;;;16.90;9.70;;;23.30;99.90;;;;;;5013753;28;20202;-76
2022/06/11 10:26:31;;;;;;;17.48;9.95;;;23.40;99.90;;;;;;5012651;28;20236;-77
2022/06/11 10:29:20;;;;;;;3.03;2.45;;;23.30;99.90;;;;;;5013872;28;20568;-77
2022/06/11 10:31:51;;;;;;;2.15;1.20;;;23.30;99.90;;;;;;5012721;28;20205;-77
2022/06/11 10:34:17;;;;;;;1.95;1.65;;;23.30;99.90;;;;;;5013711;28;20595;-77
2022/06/11 10:37:14;;;;;;;2.72;1.88;;;23.30;99.90;;;;;;5012707;28;20199;-77
2022/06/11 10:39:49;;;;;;;2.40;1.50;;;23.20;99.90;;;;;;5012579;28;20213;-77
2022/06/11 10:42:40;;;;;;;3.55;1.60;;;23.20;99.90;;;;;;5012189;28;20683;-77
2022/06/11 10:45:13;;;;;;;2.42;1.50;;;23.20;99.90;;;;;;5012586;28;20203;-77
2022/06/11 10:47:42;;;;;;;2.60;1.70;;;23.40;99.90;;;;;;5013581;28;20174;-77
2022/06/11 10:50:11;;;;;;;2.65;1.83;;;23.50;99.90;;;;;;5013426;28;20244;-77
2022/06/11 10:52:48;;;;;;;2.47;1.50;;;23.70;99.90;;;;;;5012057;28;20183;-77
2022/06/11 10:55:19;;;;;;;3.10;1.33;;;24.00;99.90;;;;;;5012041;28;20231;-77
2022/06/11 10:57:48;;;;;;;1.60;1.30;;;24.10;99.90;;;;;;5012169;28;20190;-77
2022/06/11 11:00:26;;;;;;;2.95;1.30;;;24.10;99.90;;;;;;4995635;28;20302;-77
2022/06/11 11:03:00;;;;;;;3.17;1.30;;;24.50;99.90;;;;;;5011606;28;20264;-77
2022/06/11 11:05:45;;;;;;;2.50;1.25;;;24.70;99.90;;;;;;5012079;28;20182;-77
2022/06/11 11:08:12;;;;;;;3.67;1.50;;;25.10;99.90;;;;;;5013669;28;20735;-77
2022/06/11 11:10:45;;;;;;;1.67;1.30;;;25.40;99.90;;;;;;4995718;28;20677;-77
2022/06/11 11:13:22;;;;;;;2.92;1.40;;;25.50;99.60;;;;;;5011678;28;20175;-76
2022/06/11 11:16:06;;;;;;;2.10;1.40;;;25.50;98.90;;;;;;5013103;28;20611;-76
2022/06/11 11:18:53;;;;;;;2.15;1.20;;;25.00;98.40;;;;;;4996333;28;20186;-76
2022/06/11 11:21:37;;;;;;;3.42;1.45;;;25.00;99.00;;;;;;5011667;28;20210;-76
2022/06/11 11:24:19;;;;;;;2.20;1.27;;;24.60;99.40;;;;;;4997232;28;20175;-76
2022/06/11 11:26:56;;;;;;;1.83;1.20;;;24.50;99.90;;;;;;4996213;28;20175;-76
2022/06/11 11:29:27;;;;;;;2.35;1.50;;;24.40;99.90;;;;;;5011901;28;20238;-76
2022/06/11 11:31:57;;;;;;;2.65;1.30;;;24.10;99.90;;;;;;4995583;28;20198;-76
2022/06/11 11:34:26;;;;;;;1.83;1.10;;;23.80;99.90;;;;;;5011650;28;20261;-77
2022/06/11 11:37:13;;;;;;;4.03;1.50;;;23.70;99.90;;;;;;4995462;28;20645;-78
2022/06/11 11:39:57;;;;;;;1.83;1.33;;;23.50;99.90;;;;;;5012225;28;20185;-78
2022/06/11 11:42:37;;;;;;;2.22;1.40;;;23.60;99.90;;;;;;5012613;28;20195;-78
2022/06/11 11:45:23;;;;;;;2.90;1.40;;;23.50;99.90;;;;;;5011380;28;20191;-77
2022/06/11 11:47:51;;;;;;;3.95;1.20;;;23.50;99.90;;;;;;5012399;28;20254;-77
2022/06/11 11:50:26;;;;;;;3.00;1.50;;;23.60;99.90;;;;;;5011265;28;20198;-77
2022/06/11 11:52:57;;;;;;;1.55;1.13;;;23.70;99.90;;;;;;5011125;28;20202;-77
2022/06/11 11:55:32;;;;;;;2.38;1.40;;;24.00;99.90;;;;;;5011294;28;20185;-77
2022/06/11 11:58:11;;;;;;;2.47;1.40;;;24.00;99.90;;;;;;5011588;28;20179;-77
2022/06/11 12:00:51;;;;;;;1.42;1.30;;;24.10;99.90;;;;;;5011182;28;20708;-76
2022/06/11 12:03:43;;;;;;;2.85;1.30;;;24.30;99.90;;;;;;5011322;28;20202;-76
2022/06/11 12:06:16;;;;;;;1.50;1.33;;;24.40;99.90;;;;;;5011360;28;20167;-76
2022/06/11 12:08:51;;;;;;;2.28;1.30;;;24.60;99.90;;;;;;5011136;28;20167;-76
2022/06/11 12:11:23;;;;;;;3.03;1.33;;;24.70;99.90;;;;;;5011123;28;20337;-76
2022/06/11 12:13:52;;;;;;;3.25;1.23;;;24.90;99.90;;;;;;5011731;28;20182;-76
2022/06/11 12:16:41;;;;;;;1.75;1.40;;;25.30;99.90;;;;;;5014982;28;20182;-75
2022/06/11 12:19:17;;;;;;;2.53;1.40;;;25.30;99.90;;;;;;5015211;28;20170;-76
2022/06/11 12:21:45;;;;;;;1.30;1.10;;;24.90;99.90;;;;;;5016071;28;20206;-76
2022/06/11 12:24:21;;;;;;;3.58;1.40;;;24.80;99.90;;;;;;5015065;28;20545;-76
2022/06/11 12:26:54;;;;;;;3.78;1.52;;;24.70;99.90;;;;;;5014951;28;20637;-76
2022/06/11 12:29:33;;;;;;;3.05;1.30;;;24.60;99.90;;;;;;5015174;28;20175;-77
2022/06/11 12:32:01;;;;;;;2.80;1.70;;;24.50;99.90;;;;;;5014771;28;20182;-76
2022/06/11 12:34:30;;;;;;;2.75;1.25;;;24.60;99.90;;;;;;5016106;28;20177;-76
2022/06/11 12:37:11;;;;;;;1.70;1.17;;;24.70;99.90;;;;;;5016062;28;20246;-76
2022/06/11 12:40:15;;;;;;;2.75;1.20;;;24.70;99.90;;;;;;5014771;28;20577;-76
2022/06/11 12:42:44;;;;;;;2.28;1.30;;;24.60;99.90;;;;;;5014946;28;20281;-76
2022/06/11 12:45:13;;;;;;;1.90;1.10;;;24.60;99.90;;;;;;5015424;28;20700;-76
2022/06/11 12:48:05;;;;;;;2.25;1.13;;;24.60;99.90;;;;;;5016196;28;20168;-76
2022/06/11 12:50:49;;;;;;;1.80;1.20;;;24.70;99.90;;;;;;5016184;28;20686;-76
2022/06/11 12:53:33;;;;;;;2.65;1.35;;;24.70;99.90;;;;;;5016080;28;20190;-76
2022/06/11 12:56:11;;;;;;;4.97;1.90;;;24.70;99.90;;;;;;5016180;28;20167;-76
2022/06/11 12:58:43;;;;;;;10.00;2.75;;;24.70;99.90;;;;;;5014871;28;20169;-76
2022/06/11 13:01:42;;;;;;;4.35;1.35;;;24.70;99.90;;;;;;5014692;28;20191;-76
2022/06/11 13:04:28;;;;;;;3.03;1.08;;;24.90;99.90;;;;;;5000716;28;20171;-76
2022/06/11 13:07:18;;;;;;;1.50;1.20;;;25.00;99.90;;;;;;5015936;28;20163;-76
2022/06/11 13:10:02;;;;;;;2.10;1.30;;;25.00;99.90;;;;;;5014912;28;20167;-76
2022/06/11 13:12:56;;;;;;;1.88;1.20;;;25.00;99.90;;;;;;5014403;28;20171;-76
2022/06/11 13:15:48;;;;;;;3.95;1.23;;;25.10;99.90;;;;;;5015785;28;20191;-76